createdAt,value
2018-09-28T00:00:22.116Z,99.99
2018-09-28T00:01:31.021Z,99.99
2018-09-28T00:02:39.662Z,99.99
2018-09-28T00:03:48.305Z,99.99
2018-09-28T00:04:57.206Z,99.99
2018-09-28T00:06:05.853Z,99.99
2018-09-28T00:07:14.494Z,99.99
2018-09-28T00:08:23.138Z,99.99
2018-09-28T00:09:32.038Z,99.99
2018-09-28T00:10:40.686Z,99.99
2018-09-28T00:11:49.327Z,99.99
2018-09-28T00:12:57.969Z,99.99
2018-09-28T00:14:06.884Z,99.99
2018-09-28T00:15:15.527Z,99.99
2018-09-28T00:16:24.167Z,99.99
2018-09-28T00:17:32.812Z,99.99
2018-09-28T00:18:41.445Z,99.99
2018-09-28T00:19:50.092Z,99.99
2018-09-28T00:20:58.732Z,99.99
2018-09-28T00:22:07.641Z,99.99
2018-09-28T00:23:16.285Z,99.99
2018-09-28T00:24:24.916Z,99.99
2018-09-28T00:25:33.569Z,99.99
2018-09-28T00:26:42.469Z,99.99
2018-09-28T00:27:51.120Z,99.99
2018-09-28T00:28:59.751Z,99.99
2018-09-28T00:30:08.401Z,99.99
2018-09-28T00:31:17.032Z,99.99
2018-09-28T00:32:25.679Z,99.99
2018-09-28T00:33:34.580Z,99.99
2018-09-28T00:34:43.482Z,99.99
2018-09-28T00:35:52.135Z,99.99
2018-09-28T00:37:01.049Z,99.99
2018-09-28T00:38:09.687Z,99.99
2018-09-28T00:39:18.324Z,99.99
2018-09-28T00:40:26.965Z,99.99
2018-09-28T00:41:35.603Z,99.99
2018-09-28T00:42:44.250Z,99.99
2018-09-28T00:43:52.887Z,99.99
2018-09-28T00:45:01.532Z,99.99
2018-09-28T00:46:10.166Z,99.99
2018-09-28T00:47:18.820Z,99.99
2018-09-28T00:48:27.453Z,99.99
2018-09-28T00:49:36.103Z,99.99
2018-09-28T00:50:44.732Z,99.99
2018-09-28T00:51:53.383Z,99.99
2018-09-28T00:53:02.023Z,99.99
2018-09-28T00:54:10.677Z,99.99
2018-09-28T00:55:19.310Z,99.99
2018-09-28T00:56:27.952Z,99.99
2018-09-28T00:57:36.599Z,99.99
2018-09-28T00:58:45.505Z,99.99
2018-09-28T00:59:54.415Z,99.99
2018-09-28T01:01:03.310Z,99.99
2018-09-28T01:02:11.956Z,99.99
2018-09-28T01:03:20.591Z,99.99
2018-09-28T01:04:29.247Z,99.99
2018-09-28T01:05:37.879Z,99.99
2018-09-28T01:06:46.524Z,99.99
2018-09-28T01:07:55.159Z,99.99
2018-09-28T01:09:03.809Z,99.99
2018-09-28T01:10:12.442Z,99.99
2018-09-28T01:11:21.082Z,99.99
2018-09-28T01:12:29.720Z,99.99
2018-09-28T01:13:38.369Z,99.99
2018-09-28T01:14:47.008Z,99.99
2018-09-28T01:15:55.645Z,99.99
2018-09-28T01:17:04.284Z,99.99
2018-09-28T01:18:12.921Z,99.99
2018-09-28T01:19:21.829Z,99.99
2018-09-28T01:20:30.473Z,99.99
2018-09-28T01:21:39.115Z,99.99
2018-09-28T01:22:47.750Z,99.99
2018-09-28T01:23:56.654Z,99.99
2018-09-28T01:25:05.295Z,99.99
2018-09-28T01:26:13.934Z,99.99
2018-09-28T01:27:22.574Z,99.99
2018-09-28T01:28:31.220Z,99.99
2018-09-28T01:29:39.857Z,99.99
2018-09-28T01:30:48.501Z,99.99
2018-09-28T01:31:57.399Z,99.99
2018-09-28T01:33:06.044Z,99.99
2018-09-28T01:34:14.684Z,99.99
2018-09-28T01:35:23.326Z,99.99
2018-09-28T01:36:31.968Z,99.99
2018-09-28T01:37:40.604Z,99.99
2018-09-28T01:38:49.244Z,99.99
2018-09-28T01:39:58.149Z,99.99
2018-09-28T01:41:06.797Z,99.99
2018-09-28T01:42:15.426Z,99.99
2018-09-28T01:43:24.066Z,99.99
2018-09-28T01:44:32.709Z,99.99
2018-09-28T01:45:41.355Z,99.99
2018-09-28T01:46:49.991Z,99.99
2018-09-28T01:47:58.634Z,99.99
2018-09-28T01:49:07.540Z,99.99
2018-09-28T01:50:16.446Z,99.99
2018-09-28T01:51:25.083Z,99.99
2018-09-28T01:52:33.725Z,99.99
2018-09-28T01:53:42.637Z,99.99
2018-09-28T01:54:51.536Z,99.99
2018-09-28T01:56:00.188Z,99.99
2018-09-28T01:57:09.354Z,99.99
2018-09-28T01:58:17.995Z,99.99
2018-09-28T01:59:26.630Z,99.99
2018-09-28T02:00:35.277Z,99.99
2018-09-28T02:01:43.917Z,99.99
2018-09-28T02:02:52.559Z,99.99
2018-09-28T02:04:01.197Z,99.99
2018-09-28T02:05:09.844Z,99.99
2018-09-28T02:06:18.481Z,99.99
2018-09-28T02:07:27.127Z,99.99
2018-09-28T02:08:35.764Z,99.99
2018-09-28T02:09:44.409Z,99.99
2018-09-28T02:10:53.311Z,99.99
2018-09-28T02:12:01.956Z,99.99
2018-09-28T02:13:10.857Z,99.99
2018-09-28T02:14:19.500Z,99.99
2018-09-28T02:15:28.138Z,99.99
2018-09-28T02:16:36.785Z,99.99
2018-09-28T02:17:45.429Z,99.99
2018-09-28T02:18:54.337Z,99.99
2018-09-28T02:20:03.243Z,99.99
2018-09-28T02:21:11.877Z,99.99
2018-09-28T02:22:20.532Z,99.99
2018-09-28T02:23:29.161Z,99.99
2018-09-28T02:24:37.809Z,99.99
2018-09-28T02:25:46.444Z,99.99
2018-09-28T02:26:55.097Z,99.99
2018-09-28T02:28:03.999Z,99.99
2018-09-28T02:29:12.640Z,99.99
2018-09-28T02:30:21.284Z,99.99
2018-09-28T02:31:30.190Z,99.99
2018-09-28T02:32:39.110Z,99.99
2018-09-28T02:33:47.753Z,99.99
2018-09-28T02:34:56.662Z,99.99
2018-09-28T02:36:05.293Z,99.99
2018-09-28T02:37:13.942Z,99.99
2018-09-28T02:38:22.850Z,99.99
2018-09-28T02:39:31.490Z,99.99
2018-09-28T02:40:40.123Z,99.99
2018-09-28T02:41:48.774Z,99.99
2018-09-28T02:42:57.412Z,99.99
2018-09-28T02:44:06.373Z,99.99
2018-09-28T02:45:15.007Z,99.99
2018-09-28T02:46:23.654Z,99.99
2018-09-28T02:47:32.579Z,99.99
2018-09-28T02:48:41.488Z,99.99
2018-09-28T02:49:50.393Z,99.99
2018-09-28T02:50:59.555Z,99.99
2018-09-28T02:52:08.740Z,99.99
2018-09-28T02:53:17.377Z,99.99
2018-09-28T02:54:26.026Z,99.99
2018-09-28T02:55:34.921Z,99.99
2018-09-28T02:56:43.620Z,99.99
2018-09-28T02:57:52.207Z,99.99
2018-09-28T02:59:01.123Z,99.99
2018-09-28T03:00:09.753Z,99.99
2018-09-28T03:01:18.401Z,99.99
2018-09-28T03:02:27.043Z,99.99
2018-09-28T03:03:35.702Z,99.99
2018-09-28T03:04:44.606Z,99.99
2018-09-28T03:05:53.243Z,99.99
2018-09-28T03:07:02.148Z,99.99
2018-09-28T03:08:10.788Z,99.99
2018-09-28T03:09:19.704Z,99.99
2018-09-28T03:10:28.342Z,99.99
2018-09-28T03:11:37.260Z,99.99
2018-09-28T03:12:46.159Z,99.99
2018-09-28T03:13:54.811Z,99.99
2018-09-28T03:15:03.710Z,99.99
2018-09-28T03:16:12.369Z,99.99
2018-09-28T03:17:21.008Z,99.99
2018-09-28T03:18:29.644Z,99.99
2018-09-28T03:19:38.291Z,99.99
2018-09-28T03:20:47.460Z,99.99
2018-09-28T03:21:56.110Z,99.99
2018-09-28T03:23:04.750Z,99.99
2018-09-28T03:24:13.396Z,99.99
2018-09-28T03:25:22.300Z,99.99
2018-09-28T03:26:30.943Z,99.99
2018-09-28T03:27:39.600Z,99.99
2018-09-28T03:28:48.236Z,99.99
2018-09-28T03:29:56.883Z,99.99
2018-09-28T03:31:05.780Z,99.99
2018-09-28T03:32:14.445Z,99.99
2018-09-28T03:33:23.089Z,99.99
2018-09-28T03:34:32.007Z,99.99
2018-09-28T03:35:40.642Z,99.99
2018-09-28T03:36:49.289Z,99.99
2018-09-28T03:37:57.928Z,99.99
2018-09-28T03:39:06.572Z,99.99
2018-09-28T03:40:15.470Z,99.99
2018-09-28T03:41:24.114Z,99.99
2018-09-28T03:42:33.027Z,99.99
2018-09-28T03:43:41.667Z,99.99
2018-09-28T03:44:50.311Z,99.99
2018-09-28T03:45:59.206Z,99.99
2018-09-28T03:47:07.860Z,99.99
2018-09-28T03:48:16.494Z,99.99
2018-09-28T03:49:25.151Z,99.99
2018-09-28T03:50:34.046Z,99.99
2018-09-28T03:51:42.694Z,99.99
2018-09-28T03:52:51.593Z,99.99
2018-09-28T03:54:00.247Z,99.99
2018-09-28T03:55:08.885Z,99.99
2018-09-28T03:56:17.532Z,99.99
2018-09-28T03:57:26.176Z,99.99
2018-09-28T03:58:34.831Z,99.99
2018-09-28T03:59:43.734Z,99.99
2018-09-28T04:00:52.653Z,99.99
2018-09-28T04:02:01.608Z,99.99
2018-09-28T04:03:10.252Z,99.99
2018-09-28T04:04:19.176Z,99.99
2018-09-28T04:05:27.810Z,99.99
2018-09-28T04:06:36.460Z,99.99
2018-09-28T04:07:45.355Z,99.99
2018-09-28T04:08:54.275Z,99.99
2018-09-28T04:10:02.913Z,99.99
2018-09-28T04:11:11.822Z,99.99
2018-09-28T04:12:20.455Z,99.99
2018-09-28T04:13:29.103Z,99.99
2018-09-28T04:14:37.754Z,99.99
2018-09-28T04:15:46.394Z,99.99
2018-09-28T04:16:55.034Z,99.99
2018-09-28T04:18:03.678Z,99.99
2018-09-28T04:19:12.323Z,99.99
2018-09-28T04:20:21.257Z,99.99
2018-09-28T04:21:29.885Z,99.99
2018-09-28T04:22:38.542Z,99.99
2018-09-28T04:23:47.453Z,99.99
2018-09-28T04:24:56.618Z,99.99
2018-09-28T04:26:05.533Z,99.99
2018-09-28T04:27:14.721Z,99.99
2018-09-28T04:28:23.362Z,99.99
2018-09-28T04:29:32.272Z,99.99
2018-09-28T04:30:40.924Z,99.99
2018-09-28T04:31:49.823Z,99.99
2018-09-28T04:32:58.740Z,99.99
2018-09-28T04:34:07.380Z,99.99
2018-09-28T04:35:16.297Z,99.99
2018-09-28T04:36:24.935Z,99.99
2018-09-28T04:37:33.581Z,99.99
2018-09-28T04:38:42.225Z,99.99
2018-09-28T04:39:50.866Z,99.99
2018-09-28T04:40:59.514Z,99.99
2018-09-28T04:42:08.156Z,99.99
2018-09-28T04:43:17.072Z,99.99
2018-09-28T04:44:25.709Z,99.99
2018-09-28T04:45:34.421Z,99.99
2018-09-28T04:46:43.000Z,99.99
2018-09-28T04:47:51.643Z,99.99
2018-09-28T04:49:00.282Z,99.99
2018-09-28T04:50:08.929Z,99.99
2018-09-28T04:51:17.570Z,99.99
2018-09-28T04:52:26.214Z,99.99
2018-09-28T04:53:34.848Z,99.99
2018-09-28T04:54:43.493Z,99.99
2018-09-28T04:55:52.137Z,99.99
2018-09-28T04:57:01.299Z,99.99
2018-09-28T04:58:09.944Z,99.99
2018-09-28T04:59:18.582Z,99.99
2018-09-28T05:00:27.225Z,99.99
2018-09-28T05:01:35.866Z,99.99
2018-09-28T05:02:44.511Z,99.99
2018-09-28T05:03:53.149Z,99.99
2018-09-28T05:05:01.792Z,99.99
2018-09-28T05:06:10.434Z,99.99
2018-09-28T05:07:19.081Z,99.99
2018-09-28T05:08:27.724Z,99.99
2018-09-28T05:09:36.368Z,99.99
2018-09-28T05:10:45.275Z,99.99
2018-09-28T05:11:54.191Z,99.99
2018-09-28T05:13:02.834Z,99.99
2018-09-28T05:14:11.826Z,99.99
2018-09-28T05:15:20.467Z,99.99
2018-09-28T05:16:29.105Z,99.99
2018-09-28T05:17:37.754Z,99.99
2018-09-28T05:18:46.399Z,99.99
2018-09-28T05:19:55.047Z,99.99
2018-09-28T05:21:03.948Z,99.99
2018-09-28T05:22:12.594Z,99.99
2018-09-28T05:23:21.241Z,99.99
2018-09-28T05:24:29.917Z,99.99
2018-09-28T05:25:38.555Z,99.99
2018-09-28T05:26:47.241Z,99.99
2018-09-28T05:27:55.881Z,99.99
2018-09-28T05:29:04.548Z,99.99
2018-09-28T05:30:13.604Z,99.99
2018-09-28T05:31:22.781Z,99.99
2018-09-28T05:32:32.163Z,99.99
2018-09-28T05:33:40.781Z,99.99
2018-09-28T05:34:49.456Z,99.99
2018-09-28T05:35:58.360Z,99.99
2018-09-28T05:37:07.064Z,99.99
2018-09-28T05:38:15.649Z,99.99
2018-09-28T05:39:24.851Z,99.99
2018-09-28T05:40:33.830Z,99.99
2018-09-28T05:41:42.473Z,99.99
2018-09-28T05:42:51.115Z,99.99
2018-09-28T05:43:59.763Z,99.99
2018-09-28T05:45:08.675Z,99.99
2018-09-28T05:46:17.343Z,99.99
2018-09-28T05:47:25.961Z,99.99
2018-09-28T05:48:34.608Z,99.99
2018-09-28T05:49:43.245Z,99.99
2018-09-28T05:50:51.886Z,99.99
2018-09-28T05:52:00.526Z,99.99
2018-09-28T05:53:09.166Z,99.99
2018-09-28T05:54:17.813Z,99.99
2018-09-28T05:55:26.458Z,99.99
2018-09-28T05:56:35.100Z,99.99
2018-09-28T05:57:43.737Z,99.99
2018-09-28T05:58:52.384Z,99.99
2018-09-28T06:00:01.033Z,99.99
2018-09-28T06:01:09.938Z,99.99
2018-09-28T06:02:18.834Z,99.99
2018-09-28T06:03:27.509Z,99.99
2018-09-28T06:04:36.157Z,99.99
2018-09-28T06:05:44.802Z,99.99
2018-09-28T06:06:53.439Z,99.99
2018-09-28T06:08:02.084Z,99.99
2018-09-28T06:09:10.995Z,99.99
2018-09-28T06:10:19.637Z,99.99
2018-09-28T06:11:28.284Z,99.99
2018-09-28T06:12:36.923Z,99.99
2018-09-28T06:13:45.830Z,99.99
2018-09-28T06:14:54.466Z,99.99
2018-09-28T06:16:03.416Z,99.99
2018-09-28T06:17:12.714Z,99.99
2018-09-28T06:18:21.522Z,99.99
2018-09-28T06:19:30.225Z,99.99
2018-09-28T06:20:39.179Z,99.99
2018-09-28T06:21:48.382Z,99.99
2018-09-28T06:22:57.292Z,99.99
2018-09-28T06:24:06.276Z,99.99
2018-09-28T06:25:15.193Z,99.99
2018-09-28T06:26:24.101Z,99.99
2018-09-28T06:27:32.759Z,99.99
2018-09-28T06:28:41.399Z,99.99
2018-09-28T06:29:50.060Z,99.99
2018-09-28T06:30:58.689Z,99.99
2018-09-28T06:32:07.323Z,99.99
2018-09-28T06:33:15.970Z,99.99
2018-09-28T06:34:24.602Z,99.99
2018-09-28T06:35:33.273Z,99.99
2018-09-28T06:36:41.892Z,99.99
2018-09-28T06:37:50.541Z,99.99
2018-09-28T06:38:59.172Z,99.99
2018-09-28T06:40:07.822Z,99.99
2018-09-28T06:41:16.469Z,99.99
2018-09-28T06:42:25.171Z,99.99
2018-09-28T06:43:34.152Z,99.99
2018-09-28T06:44:43.212Z,99.99
2018-09-28T06:45:51.811Z,99.99
2018-09-28T06:47:00.456Z,99.99
2018-09-28T06:48:09.161Z,99.99
2018-09-28T06:49:17.741Z,99.99
2018-09-28T06:50:26.389Z,99.99
2018-09-28T06:51:35.132Z,99.99
2018-09-28T06:52:43.784Z,99.99
2018-09-28T06:53:52.472Z,99.99
2018-09-28T06:55:01.078Z,99.99
2018-09-28T06:56:09.706Z,99.99
2018-09-28T06:57:18.357Z,99.99
2018-09-28T06:58:26.991Z,99.99
2018-09-28T06:59:35.635Z,99.99
2018-09-28T07:00:44.274Z,99.99
2018-09-28T07:01:53.197Z,99.99
2018-09-28T07:03:01.833Z,99.99
2018-09-28T07:04:10.560Z,99.99
2018-09-28T07:05:19.126Z,99.99
2018-09-28T07:06:27.767Z,99.99
2018-09-28T07:07:36.416Z,99.99
2018-09-28T07:08:45.053Z,99.99
2018-09-28T07:09:53.700Z,99.99
2018-09-28T07:11:02.332Z,99.99
2018-09-28T07:12:11.315Z,99.99
2018-09-28T07:13:19.887Z,99.99
2018-09-28T07:14:28.528Z,99.99
2018-09-28T07:15:37.181Z,99.99
2018-09-28T07:16:45.851Z,99.99
2018-09-28T07:17:54.973Z,99.99
2018-09-28T07:19:03.499Z,99.99
2018-09-28T07:20:12.150Z,99.99
2018-09-28T07:21:20.792Z,99.99
2018-09-28T07:22:29.428Z,99.99
2018-09-28T07:23:38.072Z,99.99
2018-09-28T07:24:46.764Z,99.99
2018-09-28T07:25:55.763Z,99.99
2018-09-28T07:27:04.665Z,99.99
2018-09-28T07:28:13.312Z,99.99
2018-09-28T07:29:21.950Z,99.99
2018-09-28T07:30:30.603Z,99.99
2018-09-28T07:31:39.239Z,99.99
2018-09-28T07:32:47.886Z,99.99
2018-09-28T07:33:56.520Z,99.99
2018-09-28T07:35:05.440Z,99.99
2018-09-28T07:36:14.182Z,99.99
2018-09-28T07:37:22.750Z,99.99
2018-09-28T07:38:31.383Z,99.99
2018-09-28T07:39:40.029Z,99.99
2018-09-28T07:40:48.676Z,99.99
2018-09-28T07:41:57.417Z,99.99
2018-09-28T07:43:06.351Z,99.99
2018-09-28T07:44:15.249Z,99.99
2018-09-28T07:45:24.161Z,99.99
2018-09-28T07:46:32.800Z,99.99
2018-09-28T07:47:41.733Z,99.99
2018-09-28T07:48:50.678Z,99.99
2018-09-28T07:49:59.327Z,99.99
2018-09-28T07:51:07.965Z,99.99
2018-09-28T07:52:16.618Z,99.99
2018-09-28T07:53:25.248Z,99.99
2018-09-28T07:54:34.158Z,99.99
2018-09-28T07:55:42.819Z,99.99
2018-09-28T07:56:51.452Z,99.99
2018-09-28T07:58:00.093Z,99.99
2018-09-28T07:59:08.740Z,99.99
2018-09-28T08:00:17.382Z,99.99
2018-09-28T08:01:26.023Z,99.99
2018-09-28T08:02:34.677Z,99.99
2018-09-28T08:03:43.348Z,99.99
2018-09-28T08:04:51.963Z,99.99
2018-09-28T08:06:00.621Z,99.99
2018-09-28T08:07:09.250Z,99.99
2018-09-28T08:08:17.895Z,99.99
2018-09-28T08:09:26.546Z,99.99
2018-09-28T08:10:35.181Z,99.99
2018-09-28T08:11:43.829Z,99.99
2018-09-28T08:12:52.483Z,99.99
2018-09-28T08:14:01.404Z,99.99
2018-09-28T08:15:10.042Z,99.99
2018-09-28T08:16:18.695Z,99.99
2018-09-28T08:17:27.604Z,99.99
2018-09-28T08:18:36.257Z,99.99
2018-09-28T08:19:44.900Z,99.99
2018-09-28T08:20:53.543Z,99.99
2018-09-28T08:22:02.184Z,99.99
2018-09-28T08:23:10.834Z,99.99
2018-09-28T08:24:19.481Z,99.99
2018-09-28T08:25:28.117Z,99.9
2018-09-28T08:26:36.764Z,99.99
2018-09-28T08:27:45.732Z,99.81
2018-09-28T08:28:54.486Z,99.99
2018-09-28T08:30:03.872Z,99.99
2018-09-28T08:31:12.553Z,99.99
2018-09-28T08:32:21.207Z,99.99
2018-09-28T08:33:30.113Z,99.99
2018-09-28T08:34:38.756Z,99.9
2018-09-28T08:35:47.399Z,99.99
2018-09-28T08:36:56.785Z,99.99
2018-09-28T08:38:05.449Z,99.9
2018-09-28T08:39:14.117Z,97.95
2018-09-28T08:40:22.760Z,98.71
2018-09-28T08:41:31.407Z,97.85
2018-09-28T08:42:40.047Z,95.75
2018-09-28T08:43:48.770Z,97.66
2018-09-28T08:44:57.680Z,98.24
2018-09-28T08:46:06.591Z,99
2018-09-28T08:47:15.230Z,98.04
2018-09-28T08:48:23.879Z,98.61
2018-09-28T08:49:32.521Z,94.31
2018-09-28T08:50:41.171Z,94.21
2018-09-28T08:51:49.809Z,92.88
2018-09-28T08:52:58.457Z,92.78
2018-09-28T08:54:07.372Z,93.45
2018-09-28T08:55:16.019Z,93.35
2018-09-28T08:56:24.664Z,93.64
2018-09-28T08:57:33.304Z,93.5
2018-09-28T08:58:41.945Z,92.11
2018-09-28T08:59:50.848Z,92.78
2018-09-28T09:00:59.495Z,92.97
2018-09-28T09:02:08.459Z,91.53
2018-09-28T09:03:17.410Z,90.87
2018-09-28T09:04:26.058Z,91.16
2018-09-28T09:05:34.704Z,91.73
2018-09-28T09:06:43.345Z,91.59
2018-09-28T09:07:51.992Z,92.64
2018-09-28T09:09:00.631Z,91.39
2018-09-28T09:10:09.287Z,92.54
2018-09-28T09:11:17.930Z,92.54
2018-09-28T09:12:26.568Z,93.12
2018-09-28T09:13:35.210Z,93.5
2018-09-28T09:14:43.853Z,93.5
2018-09-28T09:15:52.509Z,91.97
2018-09-28T09:17:01.676Z,92.07
2018-09-28T09:18:10.453Z,91.88
2018-09-28T09:19:19.539Z,92.93
2018-09-28T09:20:28.191Z,93.4
2018-09-28T09:21:37.102Z,93.69
2018-09-28T09:22:46.014Z,91.49
2018-09-28T09:23:54.687Z,93.98
2018-09-28T09:25:03.672Z,94.26
2018-09-28T09:26:12.316Z,93.88
2018-09-28T09:27:21.225Z,93.31
2018-09-28T09:28:30.132Z,93.6
2018-09-28T09:29:38.956Z,94.65
2018-09-28T09:30:47.604Z,96.08
2018-09-28T09:31:56.250Z,94.79
2018-09-28T09:33:05.056Z,94.79
2018-09-28T09:34:13.690Z,94.17
2018-09-28T09:35:22.341Z,93.45
2018-09-28T09:36:30.997Z,94.6
2018-09-28T09:37:39.655Z,92.78
2018-09-28T09:38:48.377Z,92.69
2018-09-28T09:39:57.101Z,92.11
2018-09-28T09:41:05.740Z,91.53
2018-09-28T09:42:14.391Z,91.83
2018-09-28T09:43:23.027Z,91.06
2018-09-28T09:44:31.674Z,90.87
2018-09-28T09:45:40.314Z,91.53
2018-09-28T09:46:48.966Z,92.21
2018-09-28T09:47:57.611Z,91.73
2018-09-28T09:49:06.251Z,91.87
2018-09-28T09:50:14.897Z,91.97
2018-09-28T09:51:24.092Z,92.06
2018-09-28T09:52:32.750Z,90.82
2018-09-28T09:53:41.382Z,89.76
2018-09-28T09:54:50.346Z,88.81
2018-09-28T09:55:58.989Z,89.67
2018-09-28T09:57:07.641Z,88.81
2018-09-28T09:58:16.836Z,89
2018-09-28T09:59:25.753Z,88.04
2018-09-28T10:00:34.648Z,89.29
2018-09-28T10:01:43.302Z,89.33
2018-09-28T10:02:51.944Z,87.7
2018-09-28T10:04:00.591Z,87.03
2018-09-28T10:05:09.225Z,87.9
2018-09-28T10:06:17.875Z,85.69
2018-09-28T10:07:26.527Z,87.41
2018-09-28T10:08:35.173Z,87.41
2018-09-28T10:09:43.919Z,87.32
2018-09-28T10:10:52.901Z,89.52
2018-09-28T10:12:01.816Z,88.37
2018-09-28T10:13:10.456Z,87.13
2018-09-28T10:14:19.364Z,87.37
2018-09-28T10:15:28.451Z,86.46
2018-09-28T10:16:37.097Z,86.08
2018-09-28T10:17:45.748Z,87.9
2018-09-28T10:18:54.397Z,88.09
2018-09-28T10:20:03.041Z,86.65
2018-09-28T10:21:11.759Z,87.13
2018-09-28T10:22:20.416Z,87.51
2018-09-28T10:23:29.064Z,85.21
2018-09-28T10:24:37.708Z,85.21
2018-09-28T10:25:46.356Z,83.2
2018-09-28T10:26:55.061Z,81.96
2018-09-28T10:28:03.989Z,84.41
2018-09-28T10:29:12.635Z,82.78
2018-09-28T10:30:21.278Z,83.36
2018-09-28T10:31:30.193Z,84.35
2018-09-28T10:32:38.829Z,85.21
2018-09-28T10:33:47.486Z,83.26
2018-09-28T10:34:56.123Z,83.83
2018-09-28T10:36:04.767Z,81.54
2018-09-28T10:37:13.686Z,82.87
2018-09-28T10:38:22.341Z,82.87
2018-09-28T10:39:31.287Z,82.87
2018-09-28T10:40:40.111Z,82.01
2018-09-28T10:41:48.539Z,83.54
2018-09-28T10:42:57.189Z,83.36
2018-09-28T10:44:06.095Z,84.5
2018-09-28T10:45:15.113Z,83.64
2018-09-28T10:46:23.724Z,81.25
2018-09-28T10:47:32.350Z,80.96
2018-09-28T10:48:40.997Z,82.43
2018-09-28T10:49:49.648Z,83.59
2018-09-28T10:50:58.644Z,83.44
2018-09-28T10:52:07.461Z,80.94
2018-09-28T10:53:15.904Z,78.07
2018-09-28T10:54:24.548Z,77.31
2018-09-28T10:55:33.200Z,78.17
2018-09-28T10:56:41.842Z,77.73
2018-09-28T10:57:50.492Z,78.88
2018-09-28T10:58:59.271Z,77.15
2018-09-28T11:00:07.782Z,76.86
2018-09-28T11:01:16.424Z,76.96
2018-09-28T11:02:25.071Z,77.15
2018-09-28T11:03:34.024Z,76.77
2018-09-28T11:04:42.684Z,77.34
2018-09-28T11:05:51.267Z,78.49
2018-09-28T11:06:59.911Z,77.53
2018-09-28T11:08:08.570Z,77.63
2018-09-28T11:09:17.281Z,76.42
2018-09-28T11:10:26.035Z,76.14
2018-09-28T11:11:34.949Z,77.19
2018-09-28T11:12:43.903Z,77.19
2018-09-28T11:13:53.181Z,76.71
2018-09-28T11:15:01.829Z,75.56
2018-09-28T11:16:10.524Z,75.65
2018-09-28T11:17:19.397Z,76.62
2018-09-28T11:18:28.123Z,76.67
2018-09-28T11:19:36.785Z,76.67
2018-09-28T11:20:45.701Z,78.69
2018-09-28T11:21:54.348Z,79.26
2018-09-28T11:23:02.994Z,77.53
2018-09-28T11:24:12.167Z,78.49
2018-09-28T11:25:20.813Z,79.83
2018-09-28T11:26:29.593Z,80.41
2018-09-28T11:27:38.597Z,81.66
2018-09-28T11:28:48.434Z,81.37
2018-09-28T11:29:57.078Z,81.52
2018-09-28T11:31:05.726Z,81.33
2018-09-28T11:32:14.428Z,84.2
2018-09-28T11:33:23.227Z,84.2
2018-09-28T11:34:31.965Z,82.38
2018-09-28T11:35:40.807Z,81.43
2018-09-28T11:36:49.448Z,80.08
2018-09-28T11:37:58.101Z,81.77
2018-09-28T11:39:06.951Z,82.92
2018-09-28T11:40:15.557Z,82.38
2018-09-28T11:41:24.810Z,81.67
2018-09-28T11:42:33.453Z,80.14
2018-09-28T11:43:42.724Z,79.85
2018-09-28T11:44:51.370Z,81.1
2018-09-28T11:46:00.116Z,81
2018-09-28T11:47:08.761Z,79.57
2018-09-28T11:48:17.400Z,80.04
2018-09-28T11:49:26.076Z,77.59
2018-09-28T11:50:34.728Z,78.13
2018-09-28T11:51:43.762Z,80.14
2018-09-28T11:52:52.394Z,79.6
2018-09-28T11:54:01.036Z,81.13
2018-09-28T11:55:09.687Z,81.71
2018-09-28T11:56:18.334Z,79.8
2018-09-28T11:57:27.477Z,77.31
2018-09-28T11:58:36.314Z,76.64
2018-09-28T11:59:44.960Z,77.02
2018-09-28T12:00:53.605Z,76.67
2018-09-28T12:02:02.250Z,78.74
2018-09-28T12:03:10.904Z,79.32
2018-09-28T12:04:19.885Z,80.47
2018-09-28T12:05:28.797Z,79.89
2018-09-28T12:06:37.566Z,80.08
2018-09-28T12:07:46.096Z,79.7
2018-09-28T12:08:54.996Z,77.02
2018-09-28T12:10:03.655Z,78.84
2018-09-28T12:11:12.555Z,78.93
2018-09-28T12:12:21.276Z,78.84
2018-09-28T12:13:30.311Z,79.47
2018-09-28T12:14:38.912Z,79.95
2018-09-28T12:15:47.571Z,82.15
2018-09-28T12:16:57.045Z,82.63
2018-09-28T12:18:05.693Z,81.38
2018-09-28T12:19:14.327Z,80.9
2018-09-28T12:20:22.974Z,78.22
2018-09-28T12:21:31.655Z,77.17
2018-09-28T12:22:40.272Z,77.75
2018-09-28T12:23:48.908Z,78.22
2018-09-28T12:24:57.562Z,79.85
2018-09-28T12:26:06.205Z,78.89
2018-09-28T12:27:14.912Z,77.65
2018-09-28T12:28:23.497Z,76.25
2018-09-28T12:29:32.145Z,75.58
2018-09-28T12:30:40.858Z,74.82
2018-09-28T12:31:49.442Z,75.58
2018-09-28T12:32:58.347Z,76.25
2018-09-28T12:34:07.519Z,75.39
2018-09-28T12:35:16.162Z,76.25
2018-09-28T12:36:24.927Z,78.07
2018-09-28T12:37:33.460Z,77.59
2018-09-28T12:38:42.101Z,76.73
2018-09-28T12:39:50.781Z,77.73
2018-09-28T12:40:59.386Z,76.77
2018-09-28T12:42:08.057Z,75.23
2018-09-28T12:43:16.686Z,76.14
2018-09-28T12:44:25.501Z,75.23
2018-09-28T12:45:33.991Z,76.1
2018-09-28T12:46:43.401Z,76.42
2018-09-28T12:47:52.060Z,76.77
2018-09-28T12:49:00.704Z,76.96
2018-09-28T12:50:09.385Z,76.57
2018-09-28T12:51:17.989Z,76.77
2018-09-28T12:52:26.638Z,76.57
2018-09-28T12:53:35.600Z,77.34
2018-09-28T12:54:44.279Z,78.3
2018-09-28T12:55:52.841Z,79.83
2018-09-28T12:57:01.753Z,79.64
2018-09-28T12:58:10.393Z,77.44
2018-09-28T12:59:19.048Z,78.49
2018-09-28T13:00:27.877Z,79.16
2018-09-28T13:01:36.663Z,80.7
2018-09-28T13:02:45.380Z,81.27
2018-09-28T13:03:54.350Z,81.37
2018-09-28T13:05:03.001Z,81.18
2018-09-28T13:06:11.648Z,79.83
2018-09-28T13:07:20.292Z,79.55
2018-09-28T13:08:29.266Z,77.63
2018-09-28T13:09:37.853Z,79.83
2018-09-28T13:10:46.498Z,79.07
2018-09-28T13:11:55.149Z,77.06
2018-09-28T13:13:03.793Z,76.86
2018-09-28T13:14:12.439Z,78.27
2018-09-28T13:15:21.735Z,76.1
2018-09-28T13:16:30.654Z,75.04
2018-09-28T13:17:39.302Z,74.66
2018-09-28T13:18:47.960Z,75.9
2018-09-28T13:19:56.590Z,76.96
2018-09-28T13:21:05.302Z,76.48
2018-09-28T13:22:13.891Z,78.88
2018-09-28T13:23:22.533Z,80.16
2018-09-28T13:24:31.777Z,76.81
2018-09-28T13:25:40.363Z,75.18
2018-09-28T13:26:49.325Z,74.89
2018-09-28T13:27:58.188Z,75.37
2018-09-28T13:29:06.873Z,76.1
2018-09-28T13:30:15.536Z,75.71
2018-09-28T13:31:24.127Z,77.73
2018-09-28T13:32:32.801Z,79.93
2018-09-28T13:33:41.427Z,79.45
2018-09-28T13:34:50.332Z,78.74
2018-09-28T13:35:58.975Z,79.89
2018-09-28T13:37:07.625Z,79.89
2018-09-28T13:38:16.866Z,79.89
2018-09-28T13:39:25.450Z,79.13
2018-09-28T13:40:34.090Z,81.81
2018-09-28T13:41:42.739Z,83.25
2018-09-28T13:42:51.381Z,81.62
2018-09-28T13:44:00.032Z,80.71
2018-09-28T13:45:09.237Z,81.96
2018-09-28T13:46:17.869Z,82.92
2018-09-28T13:47:26.508Z,84.69
2018-09-28T13:48:35.175Z,84.79
2018-09-28T13:49:43.806Z,83.73
2018-09-28T13:50:52.585Z,82.2
2018-09-28T13:52:01.161Z,83.06
2018-09-28T13:53:10.075Z,84.59
2018-09-28T13:54:19.089Z,85.03
2018-09-28T13:55:27.622Z,84.12
2018-09-28T13:56:36.288Z,84.75
2018-09-28T13:57:44.916Z,85.89
2018-09-28T13:58:53.564Z,85.46
2018-09-28T14:00:02.736Z,85.8
2018-09-28T14:01:11.384Z,85.8
2018-09-28T14:02:20.083Z,85.61
2018-09-28T14:03:28.678Z,85.61
2018-09-28T14:04:37.333Z,82.64
2018-09-28T14:05:46.319Z,82.83
2018-09-28T14:06:55.077Z,84.08
2018-09-28T14:08:03.602Z,82.97
2018-09-28T14:09:12.255Z,82.78
2018-09-28T14:10:20.947Z,82.3
2018-09-28T14:11:29.960Z,81.92
2018-09-28T14:12:38.602Z,80.96
2018-09-28T14:13:47.250Z,81.15
2018-09-28T14:14:55.889Z,81.05
2018-09-28T14:16:04.544Z,78.76
2018-09-28T14:17:13.180Z,81.44
2018-09-28T14:18:21.848Z,82.2
2018-09-28T14:19:30.475Z,80.96
2018-09-28T14:20:39.191Z,78.86
2018-09-28T14:21:47.763Z,76.08
2018-09-28T14:22:56.406Z,78.38
2018-09-28T14:24:05.062Z,76.56
2018-09-28T14:25:13.701Z,74.74
2018-09-28T14:26:22.449Z,76.37
2018-09-28T14:27:31.268Z,74.84
2018-09-28T14:28:39.932Z,73.88
2018-09-28T14:29:48.559Z,76.18
2018-09-28T14:30:57.213Z,77.04
2018-09-28T14:32:05.852Z,75.7
2018-09-28T14:33:14.491Z,74.45
2018-09-28T14:34:23.176Z,76.18
2018-09-28T14:35:31.795Z,76.84
2018-09-28T14:36:40.462Z,76.56
2018-09-28T14:37:49.078Z,78.19
2018-09-28T14:38:57.721Z,77.7
2018-09-28T14:40:06.428Z,78.66
2018-09-28T14:41:15.319Z,80.19
2018-09-28T14:42:24.308Z,78.86
2018-09-28T14:43:32.865Z,75.41
2018-09-28T14:44:41.579Z,76.84
2018-09-28T14:45:50.167Z,75.6
2018-09-28T14:46:58.805Z,77.7